Time;durP1;ratioP1;P1;durP2;ratioP2;P2;SDS_P1;SDS_P2;PMS_P1;PMS_P2;Temp;Humidity;BMP_temperature;BMP_pressure;BME280_temperature;BME280_humidity;BME280_pressure;Samples;Min_cycle;Max_cycle;Signal;HPM_P1;HPM_P2
2021/03/18 00:01:41;;;;;;;11.60;6.90;;;;;;;8.97;32.89;100513.44;5038741;28;20121;-72
2021/03/18 00:04:10;;;;;;;10.15;6.43;;;;;;;8.98;32.81;100509.94;5039854;28;20052;-72
2021/03/18 00:06:39;;;;;;;8.05;5.43;;;;;;;9.16;31.94;100504.00;5043267;28;20057;-70
2021/03/18 00:09:10;;;;;;;11.98;7.85;;;;;;;9.26;31.41;100507.91;5039279;28;20543;-71
2021/03/18 00:11:45;;;;;;;12.68;6.03;;;;;;;9.06;30.75;100508.72;5041332;28;20106;-71
2021/03/18 00:14:14;;;;;;;9.43;5.28;;;;;;;9.16;30.74;100517.00;5045509;28;20037;-72
2021/03/18 00:16:40;;;;;;;7.10;5.20;;;;;;;9.14;30.92;100516.22;5044907;28;20120;-72
2021/03/18 00:19:08;;;;;;;6.68;5.32;;;;;;;8.88;32.12;100535.44;5046944;28;20118;-72
2021/03/18 00:21:34;;;;;;;9.95;5.97;;;;;;;8.57;33.19;100540.94;5045259;28;20044;-72
2021/03/18 00:24:01;;;;;;;8.27;5.13;;;;;;;8.62;34.01;100546.81;5041060;28;20080;-72
2021/03/18 00:26:30;;;;;;;9.82;6.65;;;;;;;8.59;35.68;100557.34;5045691;28;20127;-71
2021/03/18 00:28:58;;;;;;;11.98;7.18;;;;;;;8.46;36.72;100562.09;5038373;28;20087;-72
2021/03/18 00:31:28;;;;;;;12.13;6.93;;;;;;;8.54;36.84;100567.03;5042896;28;20127;-71
2021/03/18 00:33:55;;;;;;;12.23;8.55;;;;;;;8.30;39.51;100574.75;5044827;28;20071;-71
2021/03/18 00:36:22;;;;;;;16.20;8.20;;;;;;;8.12;40.84;100583.22;5045068;28;20058;-69
2021/03/18 00:38:49;;;;;;;13.00;8.60;;;;;;;8.32;40.99;100588.56;5040764;28;20132;-69
2021/03/18 00:41:16;;;;;;;10.43;7.55;;;;;;;8.06;41.67;100578.22;5038066;28;20033;-70
2021/03/18 00:43:43;;;;;;;10.73;7.68;;;;;;;8.48;40.48;100588.06;5045149;28;20503;-70
2021/03/18 00:46:10;;;;;;;14.07;7.47;;;;;;;8.43;40.33;100569.19;5041767;28;20399;-70
2021/03/18 00:48:41;;;;;;;8.63;7.10;;;;;;;8.45;39.60;100576.00;5044450;28;20122;-71
2021/03/18 00:51:13;;;;;;;11.52;6.95;;;;;;;8.66;38.58;100576.97;5042848;28;20049;-72
2021/03/18 00:53:46;;;;;;;10.68;6.13;;;;;;;8.86;37.34;100565.84;5038049;28;20051;-72
2021/03/18 00:56:18;;;;;;;8.98;6.95;;;;;;;9.01;37.20;100573.06;5042063;28;20045;-72
2021/03/18 00:58:49;;;;;;;;;;;;;;;9.17;37.01;100565.53;5045247;28;20045;-72
2021/03/18 01:01:23;;;;;;;9.23;7.72;;;;;;;9.20;37.04;100562.78;5055120;28;19952;-72
2021/03/18 01:03:50;;;;;;;11.45;7.05;;;;;;;9.24;36.89;100561.75;5037828;28;22710;-72
2021/03/18 01:06:26;;;;;;;13.45;8.27;;;;;;;9.05;37.38;100561.63;5043712;28;20099;-71
2021/03/18 01:08:56;;;;;;;10.23;7.63;;;;;;;9.16;36.95;100561.22;5035741;28;20045;-71
2021/03/18 01:11:30;;;;;;;10.20;7.05;;;;;;;9.15;37.00;100549.13;5042632;28;20507;-74
2021/03/18 01:13:59;;;;;;;15.05;6.47;;;;;;;9.30;36.25;100543.31;5043650;28;20045;-73
2021/03/18 01:16:45;;;;;;;11.50;7.40;;;;;;;9.23;36.65;100541.88;5040405;28;20033;-73
2021/03/18 01:19:12;;;;;;;8.23;6.38;;;;;;;9.22;35.28;100548.00;5043638;28;20099;-73
2021/03/18 01:21:45;;;;;;;8.70;6.38;;;;;;;9.22;35.46;100539.34;5041974;28;20038;-73
2021/03/18 01:24:12;;;;;;;13.10;6.70;;;;;;;9.19;35.52;100541.13;5041792;28;20041;-74
2021/03/18 01:26:41;;;;;;;12.07;7.45;;;;;;;9.23;35.91;100546.22;5044846;28;20047;-72
2021/03/18 01:29:07;;;;;;;8.00;6.53;;;;;;;9.29;35.86;100540.78;5044078;28;20045;-73
2021/03/18 01:31:34;;;;;;;8.60;5.70;;;;;;;9.27;35.69;100540.84;5044238;28;20065;-75
2021/03/18 01:34:02;;;;;;;18.42;6.55;;;;;;;9.10;36.18;100549.28;5044951;28;20047;-74
2021/03/18 01:36:31;;;;;;;10.20;6.70;;;;;;;9.21;36.20;100546.28;5041433;28;20116;-75
2021/03/18 01:38:57;;;;;;;7.47;6.05;;;;;;;9.21;37.00;100543.66;5043658;28;20104;-74
2021/03/18 01:41:27;;;;;;;13.43;6.50;;;;;;;9.10;36.77;100551.03;5039758;28;20057;-75
2021/03/18 01:43:54;;;;;;;7.97;6.38;;;;;;;9.13;36.64;100543.97;5040054;28;20037;-72
2021/03/18 01:46:21;;;;;;;6.78;5.00;;;;;;;9.33;35.66;100542.34;5037905;28;20415;-75
2021/03/18 01:48:47;;;;;;;8.32;5.72;;;;;;;9.23;35.93;100544.47;5041409;28;20501;-74
2021/03/18 01:51:18;;;;;;;9.85;5.80;;;;;;;9.41;36.45;100541.13;5038146;28;20048;-74
2021/03/18 01:53:45;;;;;;;9.75;6.40;;;;;;;9.60;35.98;100540.38;5041280;28;20036;-75
2021/03/18 01:56:12;;;;;;;11.23;6.53;;;;;;;9.39;36.15;100542.09;5042361;28;20146;-74
2021/03/18 01:58:41;;;;;;;7.70;5.20;;;;;;;9.40;35.92;100549.84;5040879;28;20049;-74
2021/03/18 02:01:10;;;;;;;7.40;5.82;;;;;;;9.21;36.61;100545.41;5033818;28;20439;-71
2021/03/18 02:03:37;;;;;;;6.75;5.53;;;;;;;9.35;35.84;100548.34;5041108;28;20406;-72
2021/03/18 02:06:05;;;;;;;8.38;5.72;;;;;;;9.43;34.95;100552.34;5040864;28;20484;-71
2021/03/18 02:08:32;;;;;;;6.38;4.90;;;;;;;9.37;34.96;100551.72;5039000;28;20491;-72
2021/03/18 02:10:59;;;;;;;8.95;5.30;;;;;;;9.11;36.00;100552.78;5037013;28;20060;-72
2021/03/18 02:13:26;;;;;;;8.40;4.97;;;;;;;9.27;35.70;100548.66;5042937;28;20480;-72
2021/03/18 02:15:59;;;;;;;12.13;5.75;;;;;;;9.28;35.49;100550.34;5043641;28;20539;-72
2021/03/18 02:18:53;;;;;;;9.00;4.97;;;;;;;9.27;34.00;100548.66;5057132;28;20057;-76
2021/03/18 02:21:25;;;;;;;7.70;5.13;;;;;;;9.26;33.17;100533.09;5042360;28;20646;-74
2021/03/18 02:23:51;;;;;;;6.20;4.78;;;;;;;9.09;34.10;100534.59;5040079;28;20045;-73
2021/03/18 02:26:36;;;;;;;5.45;4.28;;;;;;;9.21;33.60;100529.81;5043788;28;20050;-73
2021/03/18 02:29:30;;;;;;;7.68;4.57;;;;;;;9.16;33.59;100519.59;5045734;28;20094;-73
2021/03/18 02:32:30;;;;;;;7.22;4.38;;;;;;;9.18;33.31;100523.84;5052993;28;20049;-74
2021/03/18 02:35:18;;;;;;;11.55;4.22;;;;;;;8.99;32.61;100522.00;5052781;28;20083;-73
2021/03/18 02:38:10;;;;;;;5.55;4.25;;;;;;;9.02;32.21;100519.31;5042563;28;20045;-72
2021/03/18 02:40:46;;;;;;;5.63;4.03;;;;;;;9.19;32.01;100504.72;5051463;28;20041;-74
2021/03/18 02:43:17;;;;;;;6.43;4.40;;;;;;;9.32;31.35;100506.81;5051801;28;20076;-73
2021/03/18 02:45:50;;;;;;;4.82;3.85;;;;;;;9.27;31.88;100522.63;5051982;28;20396;-73
2021/03/18 02:48:21;;;;;;;8.90;4.00;;;;;;;9.14;32.45;100519.66;5051120;28;20045;-73
2021/03/18 02:50:51;;;;;;;5.25;3.70;;;;;;;8.99;32.80;100527.22;5046565;28;20045;-77
2021/03/18 02:53:19;;;;;;;6.35;3.92;;;;;;;8.73;33.36;100533.41;5045198;28;20048;-76
2021/03/18 02:55:47;;;;;;;5.60;3.85;;;;;;;8.71;33.02;100533.47;5051072;28;20119;-75
2021/03/18 02:58:31;;;;;;;4.93;4.43;;;;;;;8.82;33.17;100528.72;5051113;28;20445;-72
2021/03/18 03:00:59;;;;;;;12.25;5.35;;;;;;;8.58;34.75;100529.66;5051836;28;20041;-75
2021/03/18 03:03:40;;;;;;;8.20;4.80;;;;;;;8.85;34.87;100531.22;5047331;28;20056;-73
2021/03/18 03:06:08;;;;;;;8.95;5.63;;;;;;;8.72;36.32;100527.38;5051432;28;20040;-74
2021/03/18 03:08:35;;;;;;;5.78;4.40;;;;;;;8.62;37.00;100539.84;5041257;28;20061;-73
2021/03/18 03:11:03;;;;;;;7.35;4.68;;;;;;;8.63;39.21;100527.75;5049657;28;20125;-73
2021/03/18 03:13:33;;;;;;;5.85;4.35;;;;;;;8.66;39.66;100535.41;5045238;28;20052;-74
2021/03/18 03:16:03;;;;;;;10.63;4.97;;;;;;;8.85;40.83;100541.59;5044040;28;20037;-73
2021/03/18 03:18:32;;;;;;;8.95;4.45;;;;;;;8.95;40.54;100547.31;5050417;28;20128;-74
2021/03/18 03:21:00;;;;;;;13.32;5.47;;;;;;;8.99;40.73;100548.03;5050183;28;20033;-73
2021/03/18 03:23:28;;;;;;;8.32;4.97;;;;;;;8.73;42.17;100556.81;5051561;28;20049;-73
2021/03/18 03:25:56;;;;;;;11.65;5.28;;;;;;;8.88;42.20;100549.28;5051593;28;20116;-74
2021/03/18 03:28:24;;;;;;;22.67;6.88;;;;;;;8.76;43.45;100567.09;5052332;28;20120;-73
2021/03/18 03:30:51;;;;;;;12.23;5.40;;;;;;;8.70;44.34;100568.19;5050961;28;20161;-73
2021/03/18 03:33:17;;;;;;;6.40;4.68;;;;;;;8.56;45.03;100571.28;5053855;28;20060;-74
2021/03/18 03:35:44;;;;;;;5.57;4.47;;;;;;;8.59;45.51;100570.31;5055585;28;20037;-73
2021/03/18 03:38:11;;;;;;;5.57;4.20;;;;;;;8.51;47.33;100572.34;5055191;28;20091;-73
2021/03/18 03:40:37;;;;;;;6.05;4.10;;;;;;;8.56;48.32;100575.63;5055598;28;20056;-73
2021/03/18 03:43:04;;;;;;;9.32;4.07;;;;;;;8.28;49.87;100584.38;5055306;28;20040;-73
2021/03/18 03:45:30;;;;;;;16.58;5.57;;;;;;;8.11;51.02;100582.38;5055199;28;20060;-74
2021/03/18 03:47:57;;;;;;;6.18;3.83;;;;;;;7.72;52.14;100579.34;5055529;28;20045;-73
2021/03/18 03:50:27;;;;;;;5.93;3.92;;;;;;;7.95;51.88;100586.38;5055686;28;20060;-73
2021/03/18 03:53:10;;;;;;;6.80;5.28;;;;;;;8.18;51.44;100580.41;5055089;28;20049;-72
2021/03/18 03:55:42;;;;;;;5.38;3.97;;;;;;;8.29;51.00;100572.22;5054808;28;20045;-72
2021/03/18 03:58:15;;;;;;;7.65;4.53;;;;;;;8.20;51.03;100581.19;5055446;28;20052;-73
2021/03/18 04:00:44;;;;;;;4.63;2.97;;;;;;;8.07;51.25;100580.78;5054923;28;20060;-74
2021/03/18 04:03:12;;;;;;;5.55;2.83;;;;;;;7.88;51.14;100590.94;5055003;28;20132;-72
2021/03/18 04:05:43;;;;;;;3.80;2.90;;;;;;;7.81;51.35;100588.59;5055428;28;20072;-72
2021/03/18 04:08:12;;;;;;;3.90;2.85;;;;;;;7.64;51.91;100590.88;5054577;28;20442;-72
2021/03/18 04:10:42;;;;;;;5.22;2.90;;;;;;;7.80;51.24;100584.31;5055071;28;20094;-72
2021/03/18 04:13:11;;;;;;;6.40;2.60;;;;;;;7.60;52.01;100587.53;5054874;28;20445;-72
2021/03/18 04:15:39;;;;;;;7.93;2.90;;;;;;;7.78;51.45;100593.91;5054572;28;21042;-72
2021/03/18 04:18:08;;;;;;;4.72;2.65;;;;;;;7.83;51.14;100589.41;5054589;28;20118;-72
2021/03/18 04:20:38;;;;;;;7.10;2.60;;;;;;;7.92;51.26;100596.00;5054839;28;20041;-73
2021/03/18 04:23:09;;;;;;;7.20;3.38;;;;;;;7.97;50.91;100597.56;5054383;28;20099;-73
2021/03/18 04:25:37;;;;;;;7.45;3.38;;;;;;;7.87;51.25;100601.34;5054354;28;20045;-73
2021/03/18 04:28:09;;;;;;;8.10;2.88;;;;;;;7.69;51.60;100602.81;5054040;28;20052;-72
2021/03/18 04:30:38;;;;;;;6.88;2.90;;;;;;;7.68;51.55;100590.75;5054467;28;20069;-72
2021/03/18 04:33:06;;;;;;;7.65;4.75;;;;;;;7.71;50.96;100593.22;5054215;28;20045;-72
2021/03/18 04:35:33;;;;;;;3.67;2.97;;;;;;;7.61;51.29;100608.22;5054514;28;20462;-72
2021/03/18 04:38:02;;;;;;;7.65;3.20;;;;;;;7.48;51.78;100604.34;5054868;28;20124;-74
2021/03/18 04:40:28;;;;;;;8.30;3.55;;;;;;;7.56;51.69;100602.38;5054300;28;20127;-73
2021/03/18 04:42:56;;;;;;;3.42;3.13;;;;;;;7.65;51.16;100606.41;5054335;28;20065;-73
2021/03/18 04:45:25;;;;;;;3.08;2.72;;;;;;;7.57;51.18;100604.06;5053864;28;20454;-73
2021/03/18 04:47:53;;;;;;;7.80;4.00;;;;;;;7.58;51.16;100608.34;5054391;28;20047;-72
2021/03/18 04:50:21;;;;;;;2.55;2.35;;;;;;;7.63;50.72;100613.41;5054377;28;20045;-73
2021/03/18 04:52:49;;;;;;;3.42;2.90;;;;;;;7.51;51.24;100611.16;5054239;28;20064;-74
2021/03/18 04:55:18;;;;;;;5.78;2.53;;;;;;;7.59;50.98;100606.59;5054455;28;20451;-73
2021/03/18 04:57:49;;;;;;;7.55;2.95;;;;;;;7.54;51.15;100609.34;5053896;28;20056;-74
2021/03/18 05:00:18;;;;;;;6.68;2.78;;;;;;;7.52;51.40;100621.53;5054301;28;20486;-73
2021/03/18 05:02:47;;;;;;;7.55;3.85;;;;;;;7.47;51.49;100617.38;5053978;28;20052;-73
2021/03/18 05:05:22;;;;;;;8.18;2.92;;;;;;;7.47;51.61;100618.22;5054266;28;20040;-72
2021/03/18 05:07:51;;;;;;;3.35;3.00;;;;;;;7.32;51.75;100624.72;5053665;28;20045;-72
2021/03/18 05:10:20;;;;;;;7.80;3.65;;;;;;;7.38;51.68;100622.84;5054065;28;20485;-71
2021/03/18 05:12:46;;;;;;;7.82;2.53;;;;;;;7.40;51.49;100626.22;5053713;28;20416;-71
2021/03/18 05:15:14;;;;;;;4.78;2.60;;;;;;;7.35;51.99;100629.84;5053791;28;20041;-70
2021/03/18 05:17:42;;;;;;;7.82;2.95;;;;;;;7.13;52.50;100630.50;5053523;28;20498;-70
2021/03/18 05:20:10;;;;;;;3.03;2.38;;;;;;;7.20;52.22;100629.44;5054028;28;20045;-71
2021/03/18 05:22:39;;;;;;;3.67;2.78;;;;;;;6.97;52.64;100633.53;5045512;28;20053;-70
2021/03/18 05:25:08;;;;;;;8.32;2.83;;;;;;;7.11;52.55;100635.75;5041972;28;20037;-70
2021/03/18 05:27:37;;;;;;;7.22;3.17;;;;;;;7.14;51.99;100629.59;5043802;28;20091;-69
2021/03/18 05:30:07;;;;;;;7.25;3.47;;;;;;;7.08;52.42;100635.81;5041615;28;20040;-72
2021/03/18 05:32:33;;;;;;;6.35;2.80;;;;;;;7.00;52.32;100638.66;5042935;28;20076;-72
2021/03/18 05:35:00;;;;;;;8.23;4.00;;;;;;;6.95;52.56;100642.25;5041069;28;20041;-74
2021/03/18 05:37:26;;;;;;;5.88;3.60;;;;;;;6.87;52.99;100641.63;5039414;28;20064;-74
2021/03/18 05:39:53;;;;;;;3.60;2.95;;;;;;;6.95;52.78;100639.66;5041188;28;20124;-72
2021/03/18 05:42:19;;;;;;;6.03;3.35;;;;;;;7.15;51.92;100641.69;5043355;28;20099;-74
2021/03/18 05:44:46;;;;;;;6.78;2.83;;;;;;;7.19;51.89;100638.09;5041254;28;20045;-73
2021/03/18 05:47:12;;;;;;;4.07;3.25;;;;;;;7.23;51.35;100639.69;5044940;28;20040;-72
2021/03/18 05:49:41;;;;;;;4.72;3.42;;;;;;;7.22;51.52;100633.66;5037530;28;20056;-73
2021/03/18 05:52:10;;;;;;;4.95;3.22;;;;;;;7.14;51.65;100638.25;5038601;28;20063;-73
2021/03/18 05:54:39;;;;;;;12.35;4.15;;;;;;;7.12;51.84;100640.03;5040981;28;20102;-72
2021/03/18 05:57:07;;;;;;;5.13;3.53;;;;;;;7.01;52.22;100631.72;5041429;28;20045;-72
2021/03/18 05:59:35;;;;;;;14.93;4.03;;;;;;;7.27;51.86;100639.56;5040231;28;20128;-72
2021/03/18 06:02:03;;;;;;;4.63;3.45;;;;;;;7.75;50.28;100633.75;5041667;28;20045;-72
2021/03/18 06:04:29;;;;;;;6.40;3.20;;;;;;;8.21;49.51;100637.44;5038724;28;20167;-72
2021/03/18 06:06:56;;;;;;;9.40;3.72;;;;;;;8.59;48.40;100635.28;5044561;28;20460;-72
2021/03/18 06:09:22;;;;;;;4.88;3.15;;;;;;;8.75;47.84;100644.22;5043332;28;20116;-73
2021/03/18 06:11:49;;;;;;;8.00;4.82;;;;;;;9.05;46.65;100639.63;5043415;28;20128;-73
2021/03/18 06:14:15;;;;;;;5.35;3.33;;;;;;;9.39;45.93;100639.22;5041505;28;20049;-73
2021/03/18 06:16:43;;;;;;;7.75;3.45;;;;;;;9.75;45.05;100641.28;5038727;28;20094;-70
2021/03/18 06:19:09;;;;;;;9.50;3.70;;;;;;;10.03;44.96;100648.81;5046371;28;20048;-73
2021/03/18 06:21:51;;;;;;;7.97;4.20;;;;;;;9.53;46.02;100649.06;5050070;28;20411;-75
2021/03/18 06:24:20;;;;;;;10.45;3.63;;;;;;;10.28;44.29;100638.25;5052374;28;20049;-76
2021/03/18 06:26:47;;;;;;;4.97;2.88;;;;;;;10.74;43.17;100626.66;5052069;28;20072;-74
2021/03/18 06:29:36;;;;;;;7.20;3.95;;;;;;;11.17;42.14;100631.69;5052558;28;20447;-72
2021/03/18 06:32:12;;;;;;;5.38;2.88;;;;;;;11.42;41.68;100632.25;5047109;28;20148;-72
2021/03/18 06:34:43;;;;;;;7.00;2.92;;;;;;;11.32;41.66;100630.13;5036797;28;20132;-74
2021/03/18 06:37:36;;;;;;;18.15;4.03;;;;;;;10.81;43.18;100642.88;5042345;28;20045;-73
2021/03/18 06:40:05;;;;;;;11.90;4.82;;;;;;;10.61;44.41;100648.13;5036876;28;20049;-73
2021/03/18 06:42:33;;;;;;;9.45;3.38;;;;;;;11.45;42.36;100639.06;5038011;28;20034;-73
2021/03/18 06:45:18;;;;;;;5.15;3.40;;;;;;;11.92;40.23;100631.56;5036722;28;20087;-75
2021/03/18 06:47:44;;;;;;;;;;;;;;;12.51;39.78;100635.53;5035157;28;20132;-73
2021/03/18 06:50:14;;;;;;;13.65;3.60;;;;;;;12.42;39.85;100632.59;5036515;28;19974;-72
2021/03/18 06:52:41;;;;;;;11.93;3.47;;;;;;;12.49;39.24;100633.94;5036782;28;20128;-73
2021/03/18 06:55:10;;;;;;;6.95;2.75;;;;;;;12.88;38.39;100636.22;5038409;28;20119;-72
2021/03/18 06:57:38;;;;;;;7.65;2.65;;;;;;;13.36;38.32;100626.69;5040641;28;20341;-73
2021/03/18 07:00:11;;;;;;;3.38;2.42;;;;;;;13.85;37.30;100634.41;5049471;28;20044;-72
2021/03/18 07:02:40;;;;;;;6.25;1.58;;;;;;;13.78;36.87;100631.28;5052262;28;20040;-72
2021/03/18 07:05:25;;;;;;;2.63;1.88;;;;;;;12.56;39.03;100637.94;5045528;28;20045;-72
2021/03/18 07:07:52;;;;;;;2.75;1.90;;;;;;;13.05;38.20;100633.59;5051198;28;20045;-73
2021/03/18 07:10:35;;;;;;;4.53;1.75;;;;;;;13.70;37.02;100630.88;5053801;28;20124;-74
2021/03/18 07:13:21;;;;;;;9.15;2.10;;;;;;;14.30;36.60;100630.88;5048196;28;20049;-73
2021/03/18 07:15:49;;;;;;;5.28;1.95;;;;;;;14.82;35.28;100621.66;5049031;28;20041;-74
2021/03/18 07:18:15;;;;;;;3.88;1.90;;;;;;;14.82;34.83;100625.13;5051927;28;20136;-77
2021/03/18 07:21:14;;;;;;;4.55;1.52;;;;;;;15.06;34.21;100630.63;5051701;28;20041;-76
2021/03/18 07:23:46;;;;;;;7.75;1.83;;;;;;;15.31;33.37;100619.44;5052338;28;20033;-75
2021/03/18 07:26:18;;;;;;;2.85;1.85;;;;;;;15.71;33.09;100623.00;5050139;28;20052;-68
2021/03/18 07:28:50;;;;;;;4.38;1.60;;;;;;;15.94;32.45;100616.22;5053462;28;20117;-62
2021/03/18 07:31:19;;;;;;;4.65;2.13;;;;;;;16.01;32.01;100619.28;5046374;28;20171;-65
2021/03/18 07:33:47;;;;;;;5.25;2.28;;;;;;;16.49;31.25;100614.28;5050323;28;20369;-68
2021/03/18 07:36:15;;;;;;;3.28;1.63;;;;;;;16.49;31.18;100614.28;5051149;28;20037;-66
2021/03/18 07:38:43;;;;;;;2.63;1.67;;;;;;;16.60;30.81;100619.63;5050434;28;20094;-65
2021/03/18 07:41:16;;;;;;;8.40;2.08;;;;;;;17.22;29.49;100618.84;5052602;28;20123;-66
2021/03/18 07:43:45;;;;;;;3.63;1.80;;;;;;;17.31;29.15;100620.81;5053727;28;20067;-64
2021/03/18 07:46:17;;;;;;;3.10;1.45;;;;;;;17.01;29.45;100616.78;5052813;28;20606;-67
2021/03/18 07:48:46;;;;;;;4.00;1.55;;;;;;;17.62;28.78;100632.59;5050717;28;20064;-66
2021/03/18 07:51:15;;;;;;;3.00;1.90;;;;;;;17.13;29.27;100633.50;5051429;28;20136;-66
2021/03/18 07:53:46;;;;;;;2.88;2.08;;;;;;;17.44;28.48;100639.19;5051706;28;20430;-66
2021/03/18 07:56:15;;;;;;;2.30;1.85;;;;;;;17.67;28.43;100641.00;5052177;28;20068;-66
2021/03/18 07:58:46;;;;;;;2.15;1.73;;;;;;;18.02;27.65;100629.69;5051654;28;20128;-66
2021/03/18 08:01:30;;;;;;;1.80;1.70;;;;;;;18.24;27.36;100640.28;5052448;28;20073;-65
2021/03/18 08:03:58;;;;;;;3.75;1.67;;;;;;;18.62;27.00;100640.94;5051317;28;20044;-66
2021/03/18 08:06:46;;;;;;;2.00;1.80;;;;;;;18.73;26.61;100641.81;5049925;28;20124;-66
2021/03/18 08:09:37;;;;;;;2.00;1.80;;;;;;;19.15;26.34;100641.22;5038479;28;20147;-66
2021/03/18 08:12:06;;;;;;;4.28;2.38;;;;;;;19.14;25.97;100643.03;5042188;28;20041;-65
2021/03/18 08:14:32;;;;;;;4.97;1.73;;;;;;;19.67;25.08;100637.06;5045139;28;20056;-65
2021/03/18 08:16:59;;;;;;;2.38;1.90;;;;;;;18.84;26.15;100639.19;5044132;28;20049;-66
2021/03/18 08:19:39;;;;;;;7.97;2.10;;;;;;;18.42;26.18;100643.31;5042925;28;20047;-66
2021/03/18 08:22:26;;;;;;;3.92;1.40;;;;;;;17.43;26.72;100648.06;5037783;28;20450;-66
2021/03/18 08:24:53;;;;;;;6.95;1.20;;;;;;;17.35;26.74;100653.03;5040325;28;20519;-66
2021/03/18 08:27:28;;;;;;;1.55;1.30;;;;;;;17.09;26.72;100650.47;5041689;28;20071;-66
2021/03/18 08:29:54;;;;;;;2.65;1.65;;;;;;;16.83;27.10;100652.31;5043875;28;20037;-67
2021/03/18 08:32:28;;;;;;;2.03;1.67;;;;;;;16.94;26.70;100664.72;5049347;28;20045;-66
2021/03/18 08:35:00;;;;;;;1.52;1.23;;;;;;;16.90;27.19;100661.47;5049019;28;20045;-67
2021/03/18 08:37:39;;;;;;;1.77;1.48;;;;;;;17.72;26.50;100659.13;5047747;28;20128;-67
2021/03/18 08:40:19;;;;;;;3.30;1.67;;;;;;;18.15;26.12;100661.25;5052635;28;20091;-67
2021/03/18 08:42:49;;;;;;;3.78;2.08;;;;;;;17.07;26.61;100672.59;5051411;28;20095;-67
2021/03/18 08:45:18;;;;;;;2.00;1.75;;;;;;;16.81;27.49;100664.72;5046621;28;20045;-66
2021/03/18 08:47:46;;;;;;;2.38;1.73;;;;;;;16.95;27.45;100658.50;5048143;28;20148;-67
2021/03/18 08:50:24;;;;;;;2.10;1.70;;;;;;;16.63;27.49;100653.66;5050215;28;20053;-67
2021/03/18 08:52:53;;;;;;;2.67;1.95;;;;;;;16.57;28.29;100651.44;5051761;28;20037;-67
2021/03/18 08:55:39;;;;;;;2.67;2.10;;;;;;;16.13;29.33;100664.94;5051220;28;20063;-66
2021/03/18 08:58:07;;;;;;;4.13;2.28;;;;;;;16.90;28.68;100660.63;5039909;28;20099;-66
2021/03/18 09:00:38;;;;;;;2.33;2.13;;;;;;;17.29;27.51;100664.84;5037145;28;20492;-66
2021/03/18 09:03:06;;;;;;;5.15;1.70;;;;;;;17.60;27.44;100666.13;5040165;28;20555;-66
2021/03/18 09:05:34;;;;;;;3.30;1.88;;;;;;;16.82;28.03;100655.03;5043848;28;20037;-66
2021/03/18 09:08:07;;;;;;;3.00;1.95;;;;;;;17.09;26.54;100661.00;5040780;28;20043;-66
2021/03/18 09:10:36;;;;;;;3.15;1.60;;;;;;;17.24;27.59;100669.59;5049234;28;20129;-66
2021/03/18 09:13:12;;;;;;;2.13;1.88;;;;;;;16.66;28.17;100658.69;5046477;28;20049;-66
2021/03/18 09:15:41;;;;;;;3.20;2.38;;;;;;;15.76;29.89;100659.47;5045894;28;20380;-66
2021/03/18 09:18:18;;;;;;;3.90;1.90;;;;;;;15.75;30.13;100659.59;5042499;28;20050;-66
2021/03/18 09:20:55;;;;;;;5.45;2.28;;;;;;;15.45;31.02;100656.19;5046190;28;20048;-65
2021/03/18 09:23:25;;;;;;;7.63;2.33;;;;;;;14.97;31.02;100662.72;5039159;28;20049;-64
2021/03/18 09:25:55;;;;;;;3.03;1.98;;;;;;;14.37;32.53;100639.22;5038458;28;20033;-62
2021/03/18 09:28:21;;;;;;;5.38;2.72;;;;;;;14.42;32.91;100655.53;5043928;28;20389;-62
2021/03/18 09:30:56;;;;;;;1.83;1.73;;;;;;;14.03;32.50;100659.56;5037063;28;20044;-62
2021/03/18 09:33:35;;;;;;;4.80;1.95;;;;;;;13.40;33.95;100646.53;5035417;28;20037;-62
2021/03/18 09:36:24;;;;;;;7.28;2.15;;;;;;;13.52;33.17;100658.09;5033592;28;20068;-62
2021/03/18 09:39:09;;;;;;;2.70;2.08;;;;;;;13.96;32.69;100649.53;5031716;28;20041;-62
2021/03/18 09:41:47;;;;;;;3.50;2.40;;;;;;;13.61;33.37;100649.72;5036975;28;20470;-63
2021/03/18 09:44:20;;;;;;;3.35;2.03;;;;;;;13.05;34.45;100646.66;5036358;28;20045;-62
2021/03/18 09:47:01;;;;;;;3.05;1.98;;;;;;;13.25;34.48;100650.00;5038474;28;20041;-63
2021/03/18 09:49:30;;;;;;;4.13;1.70;;;;;;;13.45;33.16;100652.38;5037413;28;20049;-63
2021/03/18 09:51:58;;;;;;;3.03;2.45;;;;;;;12.94;34.27;100641.13;5040003;28;20030;-62
2021/03/18 09:54:25;;;;;;;2.05;1.80;;;;;;;13.16;34.31;100640.00;5035444;28;20045;-62
2021/03/18 09:56:52;;;;;;;4.20;2.92;;;;;;;13.26;33.48;100635.97;5045774;28;20053;-62
2021/03/18 09:59:23;;;;;;;2.65;1.75;;;;;;;13.43;32.80;100632.44;5047882;28;20124;-63
2021/03/18 10:01:50;;;;;;;3.92;2.58;;;;;;;13.30;33.27;100621.78;5047110;28;20044;-63
2021/03/18 10:04:19;;;;;;;4.82;2.33;;;;;;;13.05;33.19;100623.13;5050165;28;20130;-64
2021/03/18 10:06:54;;;;;;;4.15;2.42;;;;;;;13.01;33.31;100615.50;5044483;28;20045;-61
2021/03/18 10:09:36;;;;;;;4.00;1.75;;;;;;;13.02;29.79;100625.03;5049642;28;20041;-62
2021/03/18 10:12:08;;;;;;;5.07;1.50;;;;;;;12.75;30.48;100624.75;5048459;28;20037;-63
2021/03/18 10:14:37;;;;;;;3.65;1.77;;;;;;;13.13;30.97;100619.22;5049727;28;20136;-63
2021/03/18 10:17:18;;;;;;;2.00;1.80;;;;;;;12.98;31.24;100619.13;5051110;28;20041;-62
2021/03/18 10:19:52;;;;;;;3.00;1.65;;;;;;;12.95;30.91;100616.69;5048201;28;20041;-62
2021/03/18 10:22:21;;;;;;;5.00;2.35;;;;;;;13.40;31.65;100616.88;5046685;28;20052;-61
2021/03/18 10:25:28;;;;;;;1.67;1.58;;;;;;;13.06;30.18;100619.56;5047173;28;20041;-61
2021/03/18 10:27:59;;;;;;;3.45;1.85;;;;;;;13.14;31.52;100613.06;5047120;28;20099;-61
2021/03/18 10:30:27;;;;;;;3.78;2.15;;;;;;;13.13;32.54;100614.00;5050348;28;20041;-62
2021/03/18 10:33:15;;;;;;;5.40;2.63;;;;;;;12.97;32.06;100604.34;5050385;28;20125;-62
2021/03/18 10:35:52;;;;;;;4.30;2.00;;;;;;;13.40;32.78;100602.03;5049220;28;20037;-61
2021/03/18 10:38:31;;;;;;;2.60;2.38;;;;;;;13.16;33.28;100605.97;5049460;28;20562;-61
2021/03/18 10:41:04;;;;;;;2.60;2.20;;;;;;;13.20;33.37;100612.72;5050610;28;20044;-61
2021/03/18 10:43:33;;;;;;;2.20;1.92;;;;;;;13.05;32.75;100603.94;5047218;28;20055;-61
2021/03/18 10:46:04;;;;;;;3.05;2.28;;;;;;;12.78;32.52;100603.63;5045902;28;20090;-63
2021/03/18 10:48:33;;;;;;;2.05;1.83;;;;;;;12.79;32.16;100605.34;5045625;28;20063;-62
2021/03/18 10:51:13;;;;;;;3.83;1.77;;;;;;;12.65;32.34;100592.16;5049097;28;20044;-62
2021/03/18 10:53:41;;;;;;;3.63;2.00;;;;;;;12.70;31.40;100596.22;5046774;28;20048;-64
2021/03/18 10:56:14;;;;;;;5.03;2.13;;;;;;;12.82;31.22;100595.53;5041777;28;20037;-62
2021/03/18 10:58:41;;;;;;;7.03;2.30;;;;;;;12.79;31.88;100595.72;5049374;28;20495;-61
2021/03/18 11:01:10;;;;;;;7.57;2.50;;;;;;;12.98;32.07;100590.34;5047987;28;20091;-64
2021/03/18 11:03:42;;;;;;;3.22;2.17;;;;;;;12.75;30.79;100585.50;5044911;28;20625;-63
2021/03/18 11:06:46;;;;;;;3.03;1.70;;;;;;;12.55;31.80;100592.63;5044853;28;20053;-62
2021/03/18 11:09:12;;;;;;;3.40;2.08;;;;;;;12.58;32.03;100597.72;5021567;28;20141;-63
2021/03/18 11:11:39;;;;;;;1.80;1.67;;;;;;;12.98;31.74;100582.47;5042678;28;20057;-63
2021/03/18 11:14:06;;;;;;;5.47;1.75;;;;;;;12.97;30.37;100575.56;5050981;28;20516;-65
2021/03/18 11:16:33;;;;;;;3.42;1.75;;;;;;;12.88;29.67;100583.91;5050328;28;20571;-64
2021/03/18 11:19:06;;;;;;;2.70;1.70;;;;;;;12.98;30.10;100579.03;5047708;28;20120;-65
2021/03/18 11:21:44;;;;;;;2.85;1.55;;;;;;;13.00;29.83;100582.41;5050882;28;20068;-64
2021/03/18 11:24:10;;;;;;;2.28;1.60;;;;;;;12.75;30.14;100580.28;5049023;28;20046;-63
2021/03/18 11:26:44;;;;;;;1.52;1.42;;;;;;;13.05;29.97;100580.41;5050092;28;20047;-62
2021/03/18 11:29:12;;;;;;;;;;;;;;;12.95;29.35;100572.19;5043672;28;20048;-64
2021/03/18 11:31:42;;;;;;;6.93;1.50;;;;;;;12.96;30.60;100571.25;5050529;28;19929;-66
2021/03/18 11:34:32;;;;;;;4.32;1.73;;;;;;;12.96;31.25;100563.41;5050557;28;20574;-66
2021/03/18 11:37:05;;;;;;;2.65;2.30;;;;;;;13.12;30.69;100563.41;5050124;28;20071;-66
2021/03/18 11:39:32;;;;;;;2.25;1.80;;;;;;;13.14;30.98;100558.09;5048161;28;20040;-66
2021/03/18 11:42:00;;;;;;;13.80;3.55;;;;;;;13.19;31.44;100556.06;5050406;28;20073;-65
2021/03/18 11:44:29;;;;;;;4.57;2.45;;;;;;;13.15;31.65;100551.91;5050469;28;20075;-65
2021/03/18 11:47:04;;;;;;;3.10;2.05;;;;;;;13.04;31.79;100555.13;5050122;28;20045;-64
2021/03/18 11:49:31;;;;;;;4.03;1.80;;;;;;;13.20;31.47;100547.28;5050339;28;20041;-64